Chengdu, China

4:11 AM CST on February 11, 2016 (GMT +0800)
Shuangliu | | Change Station
CLOSE
Current Station
Airport
Location: Chengdu,
Elevation: 1624 ft
Nearby Weather Stations

Elev 1624 ft 30.58 °N, 103.95 °E | Updated 11 minutes ago

Clear
Clear
43 °F
Feels Like 43 °F
N
0
Wind Variable Wind from North

Today
High -- | Low -- °F
--% Chance of Precip.
Yesterday
High -- | Low -- °F
Precip. -- in
Pressure 29.77 in
Visibility 3.7 miles
Clouds
Dew Point 39 °F
Humidity 87%
Rainfall 0.00 in
Snow Depth Not available.
7:49 AM 6:48 PM
Waxing Crescent, 7% visible
METAR ZUUU 102000Z 00000MPS 6000 NSC 06/04 Q1008 NOSIG
Pressure 29.77 in
Visibility 3.7 miles
Clouds
Dew Point 39 °F
Humidity 87%
Rainfall 0.00 in
Snow Depth Not available.
7:49 AM 6:48 PM
Waxing Crescent, 7% visible
METAR ZUUU 102000Z 00000MPS 6000 NSC 06/04 Q1008 NOSIG

10-Day Weather Forecast

No radar image for this location.
×

Almanac

Astronomy

Feb. 11, 2016 Rise Set
Actual Time
Civil Twilight
Nautical Twilight
Astronomical Twilight
Moon
Length of Visible Light
Length of Day
Tomorrow will be .
, % of the Moon is Illuminated

Today's Extremes

Country Highs Country Lows

Community

WunderPhotos

Upload Photos

1,891,933 photos uploaded!

WunderBlog® & News

Nearby

Air Quality

  Air Quality AQ Index Pollutant
Not available.

Snow Depth

Station Depth Elevation

Earthquake Activity

City Distance Mag. Time & Date
Minimum magnitude displayed is 2.5.

Coastal Water Temperatures

Place Temperature

Stations

Nearby Weather Stations

Station Location Temp. Windchill Dew Point Humidity Wind Precip. Elev Updated Type